createdAt,value
2022-08-20T00:04:02.120Z,98329.19
2022-08-20T00:09:06.828Z,98325.84
2022-08-20T00:14:12.411Z,98330.66
2022-08-20T00:19:18.773Z,98326.91
2022-08-20T00:24:23.773Z,98332.56
2022-08-20T00:29:29.777Z,98338.06
2022-08-20T00:34:35.917Z,98329.56
2022-08-20T00:39:40.608Z,98332.97
2022-08-20T00:44:48.289Z,98325.34
2022-08-20T00:49:54.559Z,98326.22
2022-08-20T00:55:03.269Z,98334.31
2022-08-20T01:00:14.405Z,98337.75
2022-08-20T01:05:23.586Z,98330.78
2022-08-20T01:10:38.985Z,98343.50
2022-08-20T01:15:48.141Z,98343.28
2022-08-20T01:20:59.805Z,98338.94
2022-08-20T01:26:11.899Z,98337.06
2022-08-20T01:31:20.594Z,98359.75
2022-08-20T01:36:30.372Z,98354.44
2022-08-20T01:42:00.968Z,98361.56
2022-08-20T01:47:16.827Z,98340.19
2022-08-20T01:52:29.712Z,98346.97
2022-08-20T01:57:36.657Z,98353.13
2022-08-20T02:02:41.250Z,98349.13
2022-08-20T02:07:46.093Z,98351.81
2022-08-20T02:12:53.088Z,98346.28
2022-08-20T02:17:58.774Z,98345.78
2022-08-20T02:23:05.394Z,98340.00
2022-08-20T02:28:19.320Z,98344.38
2022-08-20T02:33:24.881Z,98346.59
2022-08-20T02:38:29.788Z,98349.38
2022-08-20T02:43:36.381Z,98340.28
2022-08-20T02:48:40.948Z,98335.47
2022-08-20T02:53:45.516Z,98338.03
2022-08-20T02:58:51.666Z,98323.06
2022-08-20T03:03:59.059Z,98317.78
2022-08-20T03:09:06.119Z,98319.16
2022-08-20T03:14:12.119Z,98315.59
2022-08-20T03:19:17.089Z,98312.97
2022-08-20T03:24:21.852Z,98324.06
2022-08-20T03:29:27.905Z,98331.44
2022-08-20T03:34:33.173Z,98332.41
2022-08-20T03:39:37.995Z,98327.28
2022-08-20T03:44:44.483Z,98322.06
2022-08-20T03:49:49.950Z,98310.72
2022-08-20T03:54:54.392Z,98314.38
2022-08-20T04:00:00.195Z,98322.88
2022-08-20T04:05:05.380Z,98330.59
2022-08-20T04:10:14.028Z,98329.34
2022-08-20T04:15:23.248Z,98331.81
2022-08-20T04:20:28.640Z,98336.13
2022-08-20T04:25:35.813Z,98345.09
2022-08-20T04:30:43.330Z,98349.13
2022-08-20T04:35:52.096Z,98354.53
2022-08-20T04:41:01.079Z,98350.66
2022-08-20T04:46:10.369Z,98354.63
2022-08-20T04:51:15.816Z,98368.56
2022-08-20T04:56:23.522Z,98366.34
2022-08-20T05:01:30.654Z,98361.50
2022-08-20T05:06:35.292Z,98368.19
2022-08-20T05:11:39.787Z,98367.28
2022-08-20T05:16:45.580Z,98382.53
2022-08-20T05:21:52.393Z,98381.00
2022-08-20T05:26:56.876Z,98382.03
2022-08-20T05:32:03.056Z,98369.63
2022-08-20T05:37:07.794Z,98379.00
2022-08-20T05:42:12.651Z,98389.84
2022-08-20T05:47:19.270Z,98389.91
2022-08-20T05:52:26.298Z,98384.41
2022-08-20T05:57:30.821Z,98393.38
2022-08-20T06:02:54.282Z,98399.41
2022-08-20T06:07:58.671Z,98395.50
2022-08-20T06:13:13.757Z,98401.72
2022-08-20T06:18:28.328Z,98405.41
2022-08-20T06:23:50.377Z,98410.56
2022-08-20T06:28:59.823Z,98407.59
2022-08-20T06:34:06.395Z,98411.03
2022-08-20T06:39:10.850Z,98409.28
2022-08-20T06:44:15.361Z,98407.78
2022-08-20T06:49:21.250Z,98408.09
2022-08-20T06:54:28.686Z,98419.88
2022-08-20T06:59:33.992Z,98416.75
2022-08-20T07:04:39.938Z,98421.56
2022-08-20T07:09:44.861Z,98422.09
2022-08-20T07:14:49.467Z,98424.00
2022-08-20T07:19:55.209Z,98428.94
2022-08-20T07:25:00.036Z,98432.13
2022-08-20T07:30:25.261Z,98434.69
2022-08-20T07:35:31.191Z,98446.28
2022-08-20T07:40:37.013Z,98435.19
2022-08-20T07:45:41.445Z,98439.63
2022-08-20T07:50:55.583Z,98440.56
2022-08-20T07:56:00.074Z,98441.50
2022-08-20T08:01:05.815Z,98443.31
2022-08-20T08:06:11.709Z,98441.81
2022-08-20T08:11:19.500Z,98440.44
2022-08-20T08:16:24.107Z,98441.47
2022-08-20T08:21:31.348Z,98446.47
2022-08-20T08:26:35.843Z,98440.53
2022-08-20T08:31:42.315Z,98442.16
2022-08-20T08:36:48.079Z,98441.00
2022-08-20T08:41:57.159Z,98451.81
2022-08-20T08:47:18.295Z,98445.69
2022-08-20T08:52:31.526Z,98448.25
2022-08-20T08:57:37.984Z,98457.22
2022-08-20T09:02:55.755Z,98446.44
2022-08-20T09:08:06.728Z,98444.38
2022-08-20T09:13:11.177Z,98444.25
2022-08-20T09:18:15.772Z,98438.28
2022-08-20T09:23:21.390Z,98441.72
2022-08-20T09:28:26.045Z,98447.66
2022-08-20T09:33:36.960Z,98443.38
2022-08-20T09:38:42.673Z,98445.53
2022-08-20T09:43:47.081Z,98438.22
2022-08-20T09:48:53.349Z,98419.75
2022-08-20T09:54:55.069Z,98410.75
2022-08-20T10:00:06.354Z,98419.75
2022-08-20T10:05:17.254Z,98420.47
2022-08-20T10:10:29.173Z,98431.31
2022-08-20T10:15:34.504Z,98415.31
2022-08-20T10:20:41.671Z,98411.75
2022-08-20T10:25:47.288Z,98422.38
2022-08-20T10:30:55.475Z,98414.88
2022-08-20T10:41:50.232Z,98407.00
2022-08-20T10:46:57.206Z,98412.69
2022-08-20T10:52:02.602Z,98404.66
2022-08-20T10:57:17.311Z,98402.88
2022-08-20T11:02:32.459Z,98405.00
2022-08-20T11:07:49.826Z,98402.28
2022-08-20T11:13:13.601Z,98399.84
2022-08-20T11:19:21.564Z,98406.19
2022-08-20T11:26:30.942Z,98397.28
2022-08-20T11:32:08.123Z,98401.03
2022-08-20T11:44:46.679Z,98397.00
2022-08-20T11:50:26.897Z,98373.03
2022-08-20T11:55:43.547Z,98383.88
2022-08-20T12:00:50.275Z,98366.72
2022-08-20T12:05:58.121Z,98382.28
2022-08-20T12:11:04.860Z,98374.81
2022-08-20T12:16:09.711Z,98361.09
2022-08-20T12:21:19.348Z,98360.00
2022-08-20T12:26:24.224Z,98355.13
2022-08-20T12:31:29.166Z,98352.13
2022-08-20T12:36:35.760Z,98356.56
2022-08-20T12:41:40.640Z,98352.47
2022-08-20T12:46:51.016Z,98349.59
2022-08-20T12:51:58.451Z,98341.00
2022-08-20T12:57:57.138Z,98335.72
2022-08-20T13:03:11.678Z,98341.09
2022-08-20T13:08:19.613Z,98333.47
2022-08-20T13:13:24.932Z,98331.69
2022-08-20T13:18:30.104Z,98333.88
2022-08-20T13:23:36.851Z,98325.56
2022-08-20T13:28:49.260Z,98309.22
2022-08-20T13:33:58.464Z,98309.31
2022-08-20T13:39:09.891Z,98308.84
2022-08-20T13:44:14.641Z,98313.28
2022-08-20T13:49:19.403Z,98312.25
2022-08-20T13:54:29.906Z,98320.09
2022-08-20T13:59:56.719Z,98319.75
2022-08-20T14:05:10.432Z,98340.41
2022-08-20T14:10:24.831Z,98331.16
2022-08-20T14:15:36.848Z,98347.09
2022-08-20T14:20:43.318Z,98338.06
2022-08-20T14:25:54.509Z,98342.72
2022-08-20T14:30:59.865Z,98343.50
2022-08-20T14:36:05.928Z,98350.78
2022-08-20T14:41:20.585Z,98354.03
2022-08-20T14:46:25.575Z,98346.34
2022-08-20T14:51:32.840Z,98332.50
2022-08-20T14:56:39.071Z,98329.22
2022-08-20T15:01:44.664Z,98330.91
2022-08-20T15:06:50.613Z,98335.44
2022-08-20T15:12:01.068Z,98329.75
2022-08-20T15:17:06.014Z,98314.06
2022-08-20T15:22:10.963Z,98321.06
2022-08-20T15:27:22.962Z,98307.00
2022-08-20T15:32:28.082Z,98299.16
2022-08-20T15:37:32.935Z,98301.59
2022-08-20T15:42:40.497Z,98295.56
2022-08-20T15:48:00.710Z,98290.94
2022-08-20T15:53:12.433Z,98285.69
2022-08-20T15:58:33.888Z,98272.72
2022-08-20T16:04:45.805Z,98272.66
2022-08-20T16:10:26.039Z,98284.63
2022-08-20T16:15:49.602Z,98296.25
2022-08-20T16:21:04.046Z,98306.03
2022-08-20T16:27:26.049Z,98317.53
2022-08-20T16:33:07.888Z,98301.94
2022-08-20T16:38:34.388Z,98311.91
2022-08-20T16:43:54.542Z,98322.72
2022-08-20T16:49:25.023Z,98318.75
2022-08-20T16:54:33.970Z,98320.28
2022-08-20T17:00:06.327Z,98325.56
2022-08-20T17:05:12.302Z,98333.88
2022-08-20T17:10:22.084Z,98325.84
2022-08-20T17:15:36.058Z,98327.41
2022-08-20T17:20:46.829Z,98333.81
2022-08-20T17:26:00.455Z,98338.03
2022-08-20T17:31:05.500Z,98327.13
2022-08-20T17:37:40.760Z,98344.03
2022-08-20T17:50:09.777Z,98352.81
2022-08-20T17:55:21.972Z,98359.22
2022-08-20T18:00:30.603Z,98353.53
2022-08-20T18:05:45.929Z,98353.81
2022-08-20T18:11:21.188Z,98357.59
2022-08-20T18:16:55.302Z,98360.63
2022-08-20T18:22:34.364Z,98343.44
2022-08-20T18:27:51.247Z,98339.00
2022-08-20T18:33:24.623Z,98349.16
2022-08-20T19:17:00.613Z,98369.31
2022-08-20T19:31:14.854Z,98386.44
2022-08-20T19:43:22.370Z,98385.53
2022-08-20T19:48:47.934Z,98380.00
2022-08-20T19:53:52.655Z,98393.03
2022-08-20T19:59:03.395Z,98391.06
2022-08-20T20:04:20.607Z,98392.63
2022-08-20T20:09:29.972Z,98391.31
2022-08-20T20:14:39.908Z,98401.47
2022-08-20T20:19:53.400Z,98404.31
2022-08-20T20:25:21.339Z,98401.75
2022-08-20T20:30:31.390Z,98405.44
2022-08-20T20:35:38.497Z,98409.41
2022-08-20T20:40:52.236Z,98414.13
2022-08-20T20:46:07.923Z,98414.13
2022-08-20T20:51:25.871Z,98412.13
2022-08-20T20:56:35.983Z,98395.41
2022-08-20T21:01:50.210Z,98396.25
2022-08-20T21:07:00.292Z,98399.78
2022-08-20T21:12:07.270Z,98397.31
2022-08-20T21:17:24.111Z,98406.09
2022-08-20T21:22:30.198Z,98408.28
2022-08-20T21:27:36.684Z,98411.63
2022-08-20T21:32:41.382Z,98419.75
2022-08-20T21:37:47.851Z,98423.91
2022-08-20T21:42:52.535Z,98423.38
2022-08-20T21:47:58.851Z,98425.59
2022-08-20T21:53:12.834Z,98420.47
2022-08-20T21:58:18.395Z,98418.31
2022-08-20T22:03:26.706Z,98418.56
2022-08-20T22:08:33.223Z,98418.31
2022-08-20T22:13:38.756Z,98421.31
2022-08-20T22:18:44.010Z,98421.81
2022-08-20T22:23:51.644Z,98426.56
2022-08-20T22:28:58.164Z,98423.13
2022-08-20T22:34:03.441Z,98411.81
2022-08-20T22:39:10.754Z,98411.94
2022-08-20T22:44:15.256Z,98413.19
2022-08-20T22:49:25.126Z,98413.31
2022-08-20T22:54:32.272Z,98413.06
2022-08-20T22:59:45.904Z,98418.25
2022-08-20T23:04:54.275Z,98412.88
2022-08-20T23:10:00.181Z,98404.16
2022-08-20T23:15:12.090Z,98403.06
2022-08-20T23:20:19.305Z,98401.25
2022-08-20T23:25:26.871Z,98400.50
2022-08-20T23:30:34.853Z,98398.66
2022-08-20T23:35:42.749Z,98405.41
2022-08-20T23:41:17.186Z,98401.38
2022-08-20T23:46:43.876Z,98397.31
2022-08-20T23:51:48.896Z,98399.28
2022-08-20T23:56:56.770Z,98393.41
